PWSweather.com
Personal Weather Stations
Station Observations
MEREWETHER
MerewetherAU

MerewetherAU

Lat: -32.945, Lon: 151.756

Elevation: 180

Station Type: Davis Vantage Pro

Latest ConditionsUpdated 6:47:26 AM GMT+10:10 Thursday, Jun 21, 2018
Currently Today's Max Today's Min Today's Average
Temperature 54.0°F12.2°C 55.5°F13.1°C 54.0°F12.2°C 54.6°F12.6°C
Dew Point 52.3°F11.3°C 53.2°F11.8°C 52.0°F11.1°C 52.5°F11.4°C
Winds 4.0 mph SW6.4 kmh SW 11.0 mph -17.7 kmh - - 4.2 mph 6.8 kmh
Wind Gusts 9.0 mph14.5 kmh 14.0 mph22.5 kmh - -
Humidity 94% 94% 91% 93%
Pressure 30.31 in1026.4 mb 30.32 in1026.8 mb 30.28 in1025.4 mb -
Precipitation - 0.06 in1.5 mm - -
Hour Temp Dew Point Humidity Winds Wind Gusts Pressure Precip Precip Rate Daily Precip Total
06:47 AM 54.0°F12.2°C 52.3°F11.3°C 94% 4.0 mph SW6.4 kmh SW 9.0 mph14.5 kmh 30.31 in1026.4 mb 0.00 in0.0 mm 0.00 in0.0 mm 0.06 in1.5 mm
06:37 AM 54.0°F12.2°C 52.3°F11.3°C 94% 3.0 mph SW4.8 kmh SW 9.0 mph14.5 kmh 30.32 in1026.8 mb 0.00 in0.0 mm 0.00 in0.0 mm 0.06 in1.5 mm
06:27 AM 54.0°F12.2°C 52.0°F11.1°C 93% 4.0 mph WSW6.4 kmh WSW 8.0 mph12.9 kmh 30.32 in1026.8 mb 0.00 in0.0 mm 0.00 in0.0 mm 0.06 in1.5 mm
06:17 AM 54.0°F12.2°C 52.0°F11.1°C 93% 4.0 mph SW6.4 kmh SW 8.0 mph12.9 kmh 30.31 in1026.4 mb 0.00 in0.0 mm 0.00 in0.0 mm 0.05 in1.3 mm
06:07 AM 54.1°F12.3°C 52.1°F11.2°C 93% 3.0 mph S4.8 kmh S 11.0 mph17.7 kmh 30.31 in1026.4 mb 0.00 in0.0 mm 0.00 in0.0 mm 0.05 in1.3 mm
05:57 AM 54.1°F12.3°C 52.1°F11.2°C 93% 5.0 mph SW8.0 kmh SW 11.0 mph17.7 kmh 30.30 in1026.1 mb 0.00 in0.0 mm 0.00 in0.0 mm 0.05 in1.3 mm
05:47 AM 54.0°F12.2°C 52.0°F11.1°C 93% 3.0 mph SW4.8 kmh SW 10.0 mph16.1 kmh 30.30 in1026.1 mb 0.00 in0.0 mm 0.00 in0.0 mm 0.05 in1.3 mm
05:37 AM 54.0°F12.2°C 52.0°F11.1°C 93% 4.0 mph SW6.4 kmh SW 8.0 mph12.9 kmh 30.29 in1025.7 mb 0.00 in0.0 mm 0.00 in0.0 mm 0.05 in1.3 mm
05:27 AM 54.1°F12.3°C 52.1°F11.2°C 93% 3.0 mph S4.8 kmh S 8.0 mph12.9 kmh 30.29 in1025.7 mb 0.00 in0.0 mm 0.00 in0.0 mm 0.05 in1.3 mm
05:17 AM 54.1°F12.3°C 52.1°F11.2°C 93% 2.0 mph SSW3.2 kmh SSW 11.0 mph17.7 kmh 30.29 in1025.7 mb 0.00 in0.0 mm 0.00 in0.0 mm 0.05 in1.3 mm
05:07 AM 54.1°F12.3°C 52.1°F11.2°C 93% 3.0 mph SW4.8 kmh SW 11.0 mph17.7 kmh 30.28 in1025.4 mb 0.00 in0.0 mm 0.00 in0.0 mm 0.05 in1.3 mm
04:57 AM 54.1°F12.3°C 52.1°F11.2°C 93% 5.0 mph SW8.0 kmh SW 11.0 mph17.7 kmh 30.28 in1025.4 mb 0.00 in0.0 mm 0.00 in0.0 mm 0.05 in1.3 mm
04:47 AM 54.3°F12.4°C 52.3°F11.3°C 93% 4.0 mph SW6.4 kmh SW 11.0 mph17.7 kmh 30.28 in1025.4 mb 0.00 in0.0 mm 0.00 in0.0 mm 0.05 in1.3 mm
04:37 AM 54.5°F12.5°C 52.5°F11.4°C 93% 4.0 mph SW6.4 kmh SW 10.0 mph16.1 kmh 30.29 in1025.7 mb 0.00 in0.0 mm 0.00 in0.0 mm 0.05 in1.3 mm
04:27 AM 54.5°F12.5°C 52.5°F11.4°C 93% 4.0 mph SW6.4 kmh SW 9.0 mph14.5 kmh 30.28 in1025.4 mb 0.00 in0.0 mm 0.00 in0.0 mm 0.05 in1.3 mm
04:17 AM 54.6°F12.6°C 52.6°F11.4°C 93% 1.0 mph SSW1.6 kmh SSW 6.0 mph9.7 kmh 30.28 in1025.4 mb 0.00 in0.0 mm 0.00 in0.0 mm 0.05 in1.3 mm
04:07 AM 54.7°F12.6°C 52.7°F11.5°C 93% 2.0 mph SW3.2 kmh SW 6.0 mph9.7 kmh 30.28 in1025.4 mb 0.00 in0.0 mm 0.00 in0.0 mm 0.05 in1.3 mm
03:57 AM 54.7°F12.6°C 52.7°F11.5°C 93% 3.0 mph SW4.8 kmh SW 9.0 mph14.5 kmh 30.28 in1025.4 mb 0.00 in0.0 mm 0.00 in0.0 mm 0.05 in1.3 mm
03:47 AM 54.7°F12.6°C 52.7°F11.5°C 93% 4.0 mph SW6.4 kmh SW 9.0 mph14.5 kmh 30.28 in1025.4 mb 0.00 in0.0 mm 0.00 in0.0 mm 0.05 in1.3 mm
03:37 AM 54.9°F12.7°C 52.9°F11.6°C 93% 5.0 mph SW8.0 kmh SW 8.0 mph12.9 kmh 30.28 in1025.4 mb 0.00 in0.0 mm 0.00 in0.0 mm 0.05 in1.3 mm
03:27 AM 54.9°F12.7°C 52.9°F11.6°C 93% 4.0 mph SSW6.4 kmh SSW 9.0 mph14.5 kmh 30.29 in1025.7 mb 0.00 in0.0 mm 0.00 in0.0 mm 0.04 in1.0 mm
03:17 AM 54.7°F12.6°C 52.7°F11.5°C 93% 5.0 mph S8.0 kmh S 9.0 mph14.5 kmh 30.29 in1025.7 mb 0.00 in0.0 mm 0.00 in0.0 mm 0.04 in1.0 mm
03:07 AM 54.5°F12.5°C 52.5°F11.4°C 93% 4.0 mph SW6.4 kmh SW 9.0 mph14.5 kmh 30.29 in1025.7 mb 0.00 in0.0 mm 0.00 in0.0 mm 0.04 in1.0 mm
02:57 AM 54.4°F12.4°C 52.1°F11.2°C 92% 5.0 mph SSW8.0 kmh SSW 10.0 mph16.1 kmh 30.29 in1025.7 mb 0.00 in0.0 mm 0.00 in0.0 mm 0.04 in1.0 mm
02:47 AM 54.5°F12.5°C 52.2°F11.2°C 92% 3.0 mph WSW4.8 kmh WSW 13.0 mph20.9 kmh 30.29 in1025.7 mb 0.00 in0.0 mm 0.00 in0.0 mm 0.04 in1.0 mm
02:37 AM 54.6°F12.6°C 52.3°F11.3°C 92% 5.0 mph SSW8.0 kmh SSW 13.0 mph20.9 kmh 30.29 in1025.7 mb 0.03 in0.8 mm 0.00 in0.0 mm 0.04 in1.0 mm
02:27 AM 54.7°F12.6°C 52.4°F11.3°C 92% 11.0 mph SW17.7 kmh SW 12.0 mph19.3 kmh 30.29 in1025.7 mb 0.04 in1.0 mm 0.24 in6.1 mm 0.04 in1.0 mm
02:17 AM 55.0°F12.8°C 52.7°F11.5°C 92% 5.0 mph WSW8.0 kmh WSW 12.0 mph19.3 kmh 30.28 in1025.4 mb 0.00 in0.0 mm 0.00 in0.0 mm 0.03 in0.8 mm
02:07 AM 54.9°F12.7°C 52.6°F11.4°C 92% 6.0 mph S9.7 kmh S 12.0 mph19.3 kmh 30.28 in1025.4 mb 0.00 in0.0 mm 0.00 in0.0 mm 0.02 in0.5 mm
01:57 AM 54.9°F12.7°C 52.6°F11.4°C 92% 4.0 mph SW6.4 kmh SW 11.0 mph17.7 kmh 30.29 in1025.7 mb 0.00 in0.0 mm 0.00 in0.0 mm 0.02 in0.5 mm
01:47 AM 54.6°F12.6°C 52.3°F11.3°C 92% 5.0 mph SW8.0 kmh SW 10.0 mph16.1 kmh 30.29 in1025.7 mb 0.00 in0.0 mm 0.00 in0.0 mm 0.02 in0.5 mm
01:37 AM 54.5°F12.5°C 52.2°F11.2°C 92% 6.0 mph SW9.7 kmh SW 12.0 mph19.3 kmh 30.29 in1025.7 mb 0.00 in0.0 mm 0.00 in0.0 mm 0.02 in0.5 mm
01:27 AM 54.7°F12.6°C 52.4°F11.3°C 92% 6.0 mph SW9.7 kmh SW 12.0 mph19.3 kmh 30.29 in1025.7 mb 0.00 in0.0 mm 0.00 in0.0 mm 0.02 in0.5 mm
01:17 AM 54.9°F12.7°C 52.6°F11.4°C 92% 5.0 mph SSW8.0 kmh SSW 11.0 mph17.7 kmh 30.29 in1025.7 mb 0.00 in0.0 mm 0.00 in0.0 mm 0.02 in0.5 mm
01:07 AM 55.2°F12.9°C 52.9°F11.6°C 92% 5.0 mph SW8.0 kmh SW 10.0 mph16.1 kmh 30.29 in1025.7 mb 0.00 in0.0 mm 0.00 in0.0 mm 0.02 in0.5 mm
12:57 AM 55.4°F13.0°C 53.1°F11.7°C 92% 4.0 mph SW6.4 kmh SW 14.0 mph22.5 kmh 30.30 in1026.1 mb 0.00 in0.0 mm 0.00 in0.0 mm 0.10 in2.5 mm
12:47 AM 55.5°F13.1°C 53.2°F11.8°C 92% 4.0 mph SW6.4 kmh SW 14.0 mph22.5 kmh 30.30 in1026.1 mb 0.00 in0.0 mm 0.00 in0.0 mm 0.10 in2.5 mm
12:37 AM 55.4°F13.0°C 53.1°F11.7°C 92% 3.0 mph SW4.8 kmh SW 11.0 mph17.7 kmh 30.30 in1026.1 mb 0.00 in0.0 mm 0.00 in0.0 mm 0.10 in2.5 mm
12:27 AM 55.2°F12.9°C 52.6°F11.4°C 91% 8.0 mph SW12.9 kmh SW 11.0 mph17.7 kmh 30.30 in1026.1 mb 0.00 in0.0 mm 0.00 in0.0 mm 0.10 in2.5 mm
12:17 AM 55.1°F12.8°C 52.5°F11.4°C 91% Calm Calm 11.0 mph17.7 kmh 30.30 in1026.1 mb 0.06 in1.5 mm 0.00 in0.0 mm 0.10 in2.5 mm
12:07 AM 55.1°F12.8°C 52.5°F11.4°C 91% 3.0 mph SW4.8 kmh SW 8.0 mph12.9 kmh 30.30 in1026.1 mb 0.10 in2.5 mm 0.86 in21.8 mm 0.10 in2.5 mm